createdAt,value
2018-01-20T00:00:35.891Z,1002.54
2018-01-20T00:01:35.837Z,1002.47
2018-01-20T00:02:35.818Z,1002.50
2018-01-20T00:03:35.792Z,1002.46
2018-01-20T00:04:35.759Z,1002.49
2018-01-20T00:05:35.727Z,1002.49
2018-01-20T00:06:35.705Z,1002.51
2018-01-20T00:07:35.657Z,1002.50
2018-01-20T00:08:35.632Z,1002.56
2018-01-20T00:09:35.605Z,1002.51
2018-01-20T00:10:35.578Z,1002.54
2018-01-20T00:11:35.546Z,1002.55
2018-01-20T00:12:35.506Z,1002.57
2018-01-20T00:13:35.473Z,1002.55
2018-01-20T00:14:35.449Z,1002.53
2018-01-20T00:15:35.423Z,1002.54
2018-01-20T00:16:35.388Z,1002.58
2018-01-20T00:17:35.356Z,1002.60
2018-01-20T00:18:35.338Z,1002.60
2018-01-20T00:19:35.319Z,1002.58
2018-01-20T00:20:35.263Z,1002.54
2018-01-20T00:21:35.254Z,1002.54
2018-01-20T00:22:35.241Z,1002.59
2018-01-20T00:23:35.180Z,1002.55
2018-01-20T00:24:35.146Z,1002.62
2018-01-20T00:25:35.130Z,1002.59
2018-01-20T00:26:35.095Z,1002.57
2018-01-20T00:27:35.079Z,1002.55
2018-01-20T00:28:35.047Z,1002.55
2018-01-20T00:29:35.003Z,1002.53
2018-01-20T00:30:34.985Z,1002.54
2018-01-20T00:31:34.946Z,1002.57
2018-01-20T00:32:34.936Z,1002.54
2018-01-20T00:33:34.896Z,1002.58
2018-01-20T00:34:34.851Z,1002.53
2018-01-20T00:35:34.836Z,1002.51
2018-01-20T00:36:34.796Z,1002.53
2018-01-20T00:37:34.766Z,1002.51
2018-01-20T00:38:34.751Z,1002.54
2018-01-20T00:39:34.704Z,1002.48
2018-01-20T00:40:34.670Z,1002.49
2018-01-20T00:41:34.637Z,1002.50
2018-01-20T00:42:34.625Z,1002.49
2018-01-20T00:43:34.582Z,1002.43
2018-01-20T00:44:34.546Z,1002.46
2018-01-20T00:45:34.525Z,1002.48
2018-01-20T00:46:34.515Z,1002.44
2018-01-20T00:47:34.459Z,1002.43
2018-01-20T00:48:34.438Z,1002.45
2018-01-20T00:49:34.410Z,1002.42
2018-01-20T00:50:34.368Z,1002.42
2018-01-20T00:51:34.348Z,1002.40
2018-01-20T00:52:34.330Z,1002.42
2018-01-20T00:53:34.296Z,1002.40
2018-01-20T00:54:34.248Z,1002.43
2018-01-20T00:55:34.223Z,1002.37
2018-01-20T00:56:34.212Z,1002.33
2018-01-20T00:57:34.162Z,1002.31
2018-01-20T00:58:34.129Z,1002.29
2018-01-20T00:59:34.109Z,1002.30
2018-01-20T01:00:34.066Z,1002.26
2018-01-20T01:01:34.041Z,1002.28
2018-01-20T01:02:34.013Z,1002.27
2018-01-20T01:03:33.980Z,1002.28
2018-01-20T01:04:33.948Z,1002.28
2018-01-20T01:05:33.929Z,1002.24
2018-01-20T01:06:33.890Z,1002.22
2018-01-20T01:07:33.854Z,1002.18
2018-01-20T01:08:33.839Z,1002.17
2018-01-20T01:09:33.807Z,1002.18
2018-01-20T01:10:33.771Z,1002.20
2018-01-20T01:11:33.733Z,1002.19
2018-01-20T01:12:33.715Z,1002.20
2018-01-20T01:13:33.677Z,1002.19
2018-01-20T01:14:33.652Z,1002.23
2018-01-20T01:15:33.623Z,1002.21
2018-01-20T01:16:33.594Z,1002.24
2018-01-20T01:17:33.563Z,1002.21
2018-01-20T01:18:33.525Z,1002.17
2018-01-20T01:19:33.495Z,1002.23
2018-01-20T01:20:33.473Z,1002.19
2018-01-20T01:21:33.452Z,1002.24
2018-01-20T01:22:33.419Z,1002.23
2018-01-20T01:23:33.381Z,1002.28
2018-01-20T01:24:33.356Z,1002.30
2018-01-20T01:25:33.317Z,1002.25
2018-01-20T01:26:33.292Z,1002.21
2018-01-20T01:27:33.262Z,1002.24
2018-01-20T01:28:33.229Z,1002.18
2018-01-20T01:29:33.194Z,1002.20
2018-01-20T01:30:33.191Z,1002.19
2018-01-20T01:31:33.145Z,1002.17
2018-01-20T01:32:33.117Z,1002.19
2018-01-20T01:33:33.082Z,1002.21
2018-01-20T01:34:33.047Z,1002.18
2018-01-20T01:35:33.020Z,1002.17
2018-01-20T01:36:32.995Z,1002.17
2018-01-20T01:37:32.966Z,1002.16
2018-01-20T01:38:32.927Z,1002.14
2018-01-20T01:39:32.899Z,1002.18
2018-01-20T01:40:32.866Z,1002.13
2018-01-20T01:41:32.842Z,1002.14
2018-01-20T01:42:32.812Z,1002.11
2018-01-20T01:43:32.778Z,1002.09
2018-01-20T01:44:32.743Z,1002.06
2018-01-20T01:45:32.723Z,1002.14
2018-01-20T01:46:32.699Z,1002.11
2018-01-20T01:47:32.659Z,1002.12
2018-01-20T01:48:32.631Z,1002.15
2018-01-20T01:49:32.598Z,1002.20
2018-01-20T01:50:32.571Z,1002.17
2018-01-20T01:51:32.532Z,1002.15
2018-01-20T01:52:32.513Z,1002.13
2018-01-20T01:53:32.474Z,1002.13
2018-01-20T01:54:32.451Z,1002.13
2018-01-20T01:55:32.417Z,1002.13
2018-01-20T01:56:32.389Z,1002.17
2018-01-20T01:57:32.382Z,1002.18
2018-01-20T01:58:32.331Z,1002.19
2018-01-20T01:59:32.305Z,1002.16
2018-01-20T02:00:32.263Z,1002.16
2018-01-20T02:01:32.243Z,1002.17
2018-01-20T02:02:32.211Z,1002.12
2018-01-20T02:03:32.169Z,1002.15
2018-01-20T02:04:32.143Z,1002.12
2018-01-20T02:05:32.125Z,1002.08
2018-01-20T02:06:32.085Z,1002.14
2018-01-20T02:07:32.058Z,1002.14
2018-01-20T02:08:32.029Z,1002.15
2018-01-20T02:09:32.004Z,1002.12
2018-01-20T02:10:31.971Z,1002.11
2018-01-20T02:11:31.943Z,1002.08
2018-01-20T02:12:31.912Z,1002.09
2018-01-20T02:13:31.881Z,1002.09
2018-01-20T02:14:31.845Z,1002.06
2018-01-20T02:15:31.814Z,1002.06
2018-01-20T02:16:31.792Z,1002.07
2018-01-20T02:17:31.750Z,1002.08
2018-01-20T02:18:31.729Z,1002.12
2018-01-20T02:19:31.700Z,1002.11
2018-01-20T02:20:31.657Z,1002.14
2018-01-20T02:21:31.636Z,1002.11
2018-01-20T02:22:31.602Z,1002.12
2018-01-20T02:23:31.585Z,1002.17
2018-01-20T02:24:31.536Z,1002.13
2018-01-20T02:25:31.513Z,1002.12
2018-01-20T02:26:31.485Z,1002.11
2018-01-20T02:27:31.447Z,1002.16
2018-01-20T02:28:31.418Z,1002.07
2018-01-20T02:29:31.392Z,1002.10
2018-01-20T02:30:31.357Z,1002.08
2018-01-20T02:31:31.328Z,1002.09
2018-01-20T02:32:31.307Z,1002.11
2018-01-20T02:33:31.272Z,1002.11
2018-01-20T02:34:31.246Z,1002.12
2018-01-20T02:35:31.209Z,1002.09
2018-01-20T02:36:31.184Z,1002.12
2018-01-20T02:37:31.180Z,1002.13
2018-01-20T02:38:31.123Z,1002.15
2018-01-20T02:39:31.088Z,1002.15
2018-01-20T02:40:31.062Z,1002.14
2018-01-20T02:41:31.032Z,1002.15
2018-01-20T02:42:31.004Z,1002.16
2018-01-20T02:43:30.993Z,1002.16
2018-01-20T02:44:30.939Z,1002.17
2018-01-20T02:45:30.927Z,1002.11
2018-01-20T02:46:30.897Z,1002.16
2018-01-20T02:47:30.841Z,1002.14
2018-01-20T02:48:30.830Z,1002.17
2018-01-20T02:49:30.791Z,1002.11
2018-01-20T02:50:30.764Z,1002.20
2018-01-20T02:51:30.733Z,1002.19
2018-01-20T02:52:30.703Z,1002.17
2018-01-20T02:53:30.667Z,1002.17
2018-01-20T02:54:30.653Z,1002.16
2018-01-20T02:55:30.607Z,1002.10
2018-01-20T02:56:30.582Z,1002.17
2018-01-20T02:57:30.548Z,1002.13
2018-01-20T02:58:30.513Z,1002.11
2018-01-20T02:59:30.482Z,1002.12
2018-01-20T03:00:30.451Z,1002.09
2018-01-20T03:01:30.425Z,1002.11
2018-01-20T03:02:30.403Z,1002.09
2018-01-20T03:03:30.359Z,1002.09
2018-01-20T03:04:30.327Z,1002.05
2018-01-20T03:05:30.301Z,1002.05
2018-01-20T03:06:30.269Z,1002.02
2018-01-20T03:07:30.238Z,1001.97
2018-01-20T03:08:30.204Z,1001.95
2018-01-20T03:09:30.204Z,1001.99
2018-01-20T03:10:30.149Z,1001.98
2018-01-20T03:11:30.140Z,1001.89
2018-01-20T03:12:30.091Z,1001.92
2018-01-20T03:13:30.066Z,1001.88
2018-01-20T03:14:30.021Z,1001.88
2018-01-20T03:15:29.988Z,1001.88
2018-01-20T03:16:29.967Z,1001.89
2018-01-20T03:17:29.934Z,1001.85
2018-01-20T03:18:29.908Z,1001.86
2018-01-20T03:19:29.877Z,1001.84
2018-01-20T03:20:29.849Z,1001.87
2018-01-20T03:21:29.818Z,1001.87
2018-01-20T03:22:29.787Z,1001.85
2018-01-20T03:23:29.758Z,1001.89
2018-01-20T03:24:29.728Z,1001.87
2018-01-20T03:25:29.690Z,1001.86
2018-01-20T03:26:29.663Z,1001.85
2018-01-20T03:27:29.634Z,1001.81
2018-01-20T03:28:29.601Z,1001.82
2018-01-20T03:29:29.571Z,1001.82
2018-01-20T03:30:29.546Z,1001.80
2018-01-20T03:31:29.519Z,1001.78
2018-01-20T03:32:29.485Z,1001.76
2018-01-20T03:33:29.455Z,1001.74
2018-01-20T03:34:29.426Z,1001.74
2018-01-20T03:35:29.385Z,1001.72
2018-01-20T03:36:29.368Z,1001.68
2018-01-20T03:37:29.337Z,1001.67
2018-01-20T03:38:29.297Z,1001.67
2018-01-20T03:39:29.271Z,1001.62
2018-01-20T03:40:29.239Z,1001.64
2018-01-20T03:41:29.205Z,1001.65
2018-01-20T03:42:29.197Z,1001.64
2018-01-20T03:43:29.150Z,1001.61
2018-01-20T03:44:29.129Z,1001.61
2018-01-20T03:45:29.096Z,1001.62
2018-01-20T03:46:29.061Z,1001.54
2018-01-20T03:47:29.027Z,1001.55
2018-01-20T03:48:29.009Z,1001.55
2018-01-20T03:49:28.973Z,1001.52
2018-01-20T03:50:28.934Z,1001.54
2018-01-20T03:51:28.907Z,1001.59
2018-01-20T03:52:28.886Z,1001.56
2018-01-20T03:53:28.857Z,1001.54
2018-01-20T03:54:28.814Z,1001.54
2018-01-20T03:55:28.784Z,1001.56
2018-01-20T03:56:28.761Z,1001.58
2018-01-20T03:57:28.735Z,1001.53
2018-01-20T03:58:28.706Z,1001.52
2018-01-20T03:59:28.666Z,1001.49
2018-01-20T04:00:28.635Z,1001.54
2018-01-20T04:01:28.607Z,1001.51
2018-01-20T04:02:28.569Z,1001.51
2018-01-20T04:03:28.550Z,1001.47
2018-01-20T04:04:28.513Z,1001.47
2018-01-20T04:05:28.487Z,1001.51
2018-01-20T04:06:28.480Z,1001.45
2018-01-20T04:07:28.432Z,1001.44
2018-01-20T04:08:28.387Z,1001.44
2018-01-20T04:09:28.363Z,1001.44
2018-01-20T04:10:28.327Z,1001.42
2018-01-20T04:11:28.304Z,1001.45
2018-01-20T04:12:28.276Z,1001.34
2018-01-20T04:13:28.243Z,1001.36
2018-01-20T04:14:28.214Z,1001.36
2018-01-20T04:15:28.189Z,1001.34
2018-01-20T04:16:28.156Z,1001.34
2018-01-20T04:17:28.123Z,1001.32
2018-01-20T04:18:28.088Z,1001.30
2018-01-20T04:19:28.055Z,1001.28
2018-01-20T04:20:28.038Z,1001.31
2018-01-20T04:21:27.997Z,1001.32
2018-01-20T04:22:27.968Z,1001.31
2018-01-20T04:23:27.940Z,1001.32
2018-01-20T04:24:27.906Z,1001.26
2018-01-20T04:25:27.885Z,1001.22
2018-01-20T04:26:27.851Z,1001.26
2018-01-20T04:27:27.827Z,1001.25
2018-01-20T04:28:27.788Z,1001.25
2018-01-20T04:29:27.757Z,1001.23
2018-01-20T04:30:27.735Z,1001.21
2018-01-20T04:31:27.706Z,1001.18
2018-01-20T04:32:27.671Z,1001.23
2018-01-20T04:33:27.642Z,1001.19
2018-01-20T04:34:27.610Z,1001.18
2018-01-20T04:35:27.575Z,1001.12
2018-01-20T04:36:27.552Z,1001.15
2018-01-20T04:37:27.522Z,1001.15
2018-01-20T04:38:27.489Z,1001.08
2018-01-20T04:39:27.458Z,1001.13
2018-01-20T04:40:27.445Z,1001.14
2018-01-20T04:41:27.393Z,1001.12
2018-01-20T04:42:27.378Z,1001.10
2018-01-20T04:43:27.335Z,1001.13
2018-01-20T04:44:27.303Z,1001.07
2018-01-20T04:45:27.280Z,1001.04
2018-01-20T04:46:27.248Z,1001.07
2018-01-20T04:47:27.221Z,1001.03
2018-01-20T04:48:27.182Z,1001.08
2018-01-20T04:49:27.158Z,1001.06
2018-01-20T04:50:27.118Z,1001.05
2018-01-20T04:51:27.091Z,1001.02
2018-01-20T04:52:27.057Z,1001.02
2018-01-20T04:53:27.048Z,1001.05
2018-01-20T04:54:27.006Z,1001.04
2018-01-20T04:55:26.983Z,1001.05
2018-01-20T04:56:26.944Z,1001.02
2018-01-20T04:57:26.918Z,1001.01
2018-01-20T04:58:26.881Z,1001.04
2018-01-20T04:59:26.844Z,1001.04
2018-01-20T05:00:26.823Z,1000.99
2018-01-20T05:01:26.802Z,1001.04
2018-01-20T05:02:26.767Z,1001.04
2018-01-20T05:03:26.736Z,1001.03
2018-01-20T05:04:26.710Z,1001.03
2018-01-20T05:05:26.671Z,1000.99
2018-01-20T05:06:26.652Z,1001.03
2018-01-20T05:07:26.620Z,1001.02
2018-01-20T05:08:26.574Z,1000.99
2018-01-20T05:09:26.551Z,1000.95
2018-01-20T05:10:26.517Z,1000.98
2018-01-20T05:11:26.495Z,1000.93
2018-01-20T05:12:26.474Z,1000.93
2018-01-20T05:13:26.431Z,1000.90
2018-01-20T05:14:26.401Z,1000.91
2018-01-20T05:15:26.377Z,1000.90
2018-01-20T05:16:26.349Z,1000.90
2018-01-20T05:17:26.313Z,1000.89
2018-01-20T05:18:26.279Z,1000.90
2018-01-20T05:19:26.248Z,1000.88
2018-01-20T05:20:26.222Z,1000.87
2018-01-20T05:21:26.191Z,1000.89
2018-01-20T05:22:26.153Z,1000.88
2018-01-20T05:23:26.126Z,1000.86
2018-01-20T05:24:26.124Z,1000.84
2018-01-20T05:25:26.071Z,1000.86
2018-01-20T05:26:26.051Z,1000.86
2018-01-20T05:27:26.012Z,1000.86
2018-01-20T05:28:25.975Z,1000.87
2018-01-20T05:29:25.950Z,1000.87
2018-01-20T05:30:25.922Z,1000.84
2018-01-20T05:31:25.888Z,1000.80
2018-01-20T05:32:25.854Z,1000.78
2018-01-20T05:33:25.838Z,1000.80
2018-01-20T05:34:25.819Z,1000.81
2018-01-20T05:35:25.773Z,1000.75
2018-01-20T05:36:25.749Z,1000.75
2018-01-20T05:37:25.705Z,1000.77
2018-01-20T05:38:25.684Z,1000.78
2018-01-20T05:39:25.650Z,1000.74
2018-01-20T05:40:25.616Z,1000.72
2018-01-20T05:41:25.591Z,1000.77
2018-01-20T05:42:25.560Z,1000.83
2018-01-20T05:43:25.532Z,1000.78
2018-01-20T05:44:25.498Z,1000.77
2018-01-20T05:45:25.465Z,1000.85
2018-01-20T05:46:25.439Z,1000.82
2018-01-20T05:47:25.408Z,1000.81
2018-01-20T05:48:25.377Z,1000.78
2018-01-20T05:49:25.361Z,1000.78
2018-01-20T05:50:25.312Z,1000.79
2018-01-20T05:51:25.327Z,1000.79
2018-01-20T05:52:25.262Z,1000.77
2018-01-20T05:53:25.229Z,1000.81
2018-01-20T05:54:25.208Z,1000.85
2018-01-20T05:55:25.175Z,1000.82
2018-01-20T05:56:25.139Z,1000.83
2018-01-20T05:57:25.104Z,1000.84
2018-01-20T05:58:25.082Z,1000.81
2018-01-20T05:59:25.048Z,1000.85
2018-01-20T06:00:25.018Z,1000.81
2018-01-20T06:01:25.012Z,1000.80
2018-01-20T06:02:24.963Z,1000.77
2018-01-20T06:03:24.927Z,1000.80
2018-01-20T06:04:24.902Z,1000.81
2018-01-20T06:05:24.871Z,1000.76
2018-01-20T06:06:24.847Z,1000.74
2018-01-20T06:07:24.812Z,1000.76
2018-01-20T06:08:24.803Z,1000.77
2018-01-20T06:09:26.055Z,1000.76
2018-01-20T06:10:24.725Z,1000.78
2018-01-20T06:11:24.683Z,1000.80
2018-01-20T06:12:24.665Z,1000.73
2018-01-20T06:13:24.624Z,1000.76
2018-01-20T06:14:24.625Z,1000.74
2018-01-20T06:15:24.572Z,1000.71
2018-01-20T06:16:24.548Z,1000.72
2018-01-20T06:17:24.512Z,1000.68
2018-01-20T06:18:24.485Z,1000.70
2018-01-20T06:19:24.458Z,1000.68
2018-01-20T06:20:24.421Z,1000.67
2018-01-20T06:21:24.401Z,1000.63
2018-01-20T06:22:24.367Z,1000.63
2018-01-20T06:23:24.326Z,1000.66
2018-01-20T06:24:24.312Z,1000.65
2018-01-20T06:25:24.279Z,1000.63
2018-01-20T06:26:24.244Z,1000.65
2018-01-20T06:27:24.222Z,1000.65
2018-01-20T06:28:24.174Z,1000.66
2018-01-20T06:29:24.153Z,1000.70
2018-01-20T06:30:24.124Z,1000.64
2018-01-20T06:31:24.085Z,1000.64
2018-01-20T06:32:24.059Z,1000.61
2018-01-20T06:33:24.057Z,1000.58
2018-01-20T06:34:23.994Z,1000.57
2018-01-20T06:35:24.005Z,1000.61
2018-01-20T06:36:25.130Z,1000.57
2018-01-20T06:37:23.904Z,1000.64
2018-01-20T06:38:23.898Z,1000.60
2018-01-20T06:39:23.852Z,1000.58
2018-01-20T06:40:23.814Z,1000.57
2018-01-20T06:41:23.793Z,1000.63
2018-01-20T06:42:23.767Z,1000.61
2018-01-20T06:43:23.730Z,1000.58
2018-01-20T06:44:23.708Z,1000.53
2018-01-20T06:45:23.672Z,1000.61
2018-01-20T06:46:23.634Z,1000.58
2018-01-20T06:47:23.620Z,1000.62
2018-01-20T06:48:23.583Z,1000.59
2018-01-20T06:49:23.557Z,1000.66
2018-01-20T06:50:23.518Z,1000.65
2018-01-20T06:51:23.493Z,1000.57
2018-01-20T06:52:23.464Z,1000.63
2018-01-20T06:53:23.430Z,1000.60
2018-01-20T06:54:23.401Z,1000.58
2018-01-20T06:55:23.380Z,1000.55
2018-01-20T06:56:23.340Z,1000.52
2018-01-20T06:57:23.330Z,1000.54
2018-01-20T06:58:23.303Z,1000.48
2018-01-20T06:59:23.260Z,1000.52
2018-01-20T07:00:23.224Z,1000.48
2018-01-20T07:01:23.195Z,1000.53
2018-01-20T07:02:23.161Z,1000.47
2018-01-20T07:03:23.131Z,1000.48
2018-01-20T07:04:23.115Z,1000.45
2018-01-20T07:05:23.088Z,1000.47
2018-01-20T07:06:23.045Z,1000.41
2018-01-20T07:07:23.055Z,1000.48
2018-01-20T07:08:22.989Z,1000.45
2018-01-20T07:09:22.959Z,1000.47
2018-01-20T07:10:22.922Z,1000.50
2018-01-20T07:11:22.914Z,1000.48
2018-01-20T07:12:22.878Z,1000.50
2018-01-20T07:13:22.836Z,1000.45
2018-01-20T07:14:22.797Z,1000.48
2018-01-20T07:15:22.764Z,1000.50
2018-01-20T07:16:22.737Z,1000.49
2018-01-20T07:17:22.714Z,1000.52
2018-01-20T07:18:22.680Z,1000.47
2018-01-20T07:19:22.664Z,1000.52
2018-01-20T07:20:22.618Z,1000.52
2018-01-20T07:21:22.583Z,1000.51
2018-01-20T07:22:22.571Z,1000.56
2018-01-20T07:23:22.554Z,1000.57
2018-01-20T07:24:22.502Z,1000.56
2018-01-20T07:25:22.469Z,1000.54
2018-01-20T07:26:22.447Z,1000.56
2018-01-20T07:27:22.408Z,1000.57
2018-01-20T07:28:22.436Z,1000.54
2018-01-20T07:29:22.349Z,1000.53
2018-01-20T07:30:22.327Z,1000.50
2018-01-20T07:31:22.292Z,1000.53
2018-01-20T07:32:22.259Z,1000.52
2018-01-20T07:33:22.236Z,1000.45
2018-01-20T07:34:22.204Z,1000.46
2018-01-20T07:35:22.180Z,1000.45
2018-01-20T07:36:22.142Z,1000.46
2018-01-20T07:37:22.107Z,1000.39
2018-01-20T07:38:22.088Z,1000.45
2018-01-20T07:39:22.051Z,1000.46
2018-01-20T07:40:22.016Z,1000.43
2018-01-20T07:41:21.996Z,1000.44
2018-01-20T07:42:21.971Z,1000.49
2018-01-20T07:43:21.927Z,1000.49
2018-01-20T07:44:21.932Z,1000.48
2018-01-20T07:45:21.885Z,1000.49
2018-01-20T07:46:21.858Z,1000.48
2018-01-20T07:47:21.807Z,1000.44
2018-01-20T07:48:21.784Z,1000.45
2018-01-20T07:49:21.746Z,1000.40
2018-01-20T07:50:21.719Z,1000.35
2018-01-20T07:51:21.700Z,1000.39
2018-01-20T07:52:21.683Z,1000.42
2018-01-20T07:53:21.630Z,1000.36
2018-01-20T07:54:21.607Z,1000.34
2018-01-20T07:55:21.577Z,1000.37
2018-01-20T07:56:21.553Z,1000.37
2018-01-20T07:57:21.529Z,1000.36
2018-01-20T07:58:21.500Z,1000.34
2018-01-20T07:59:21.443Z,1000.28
2018-01-20T08:00:21.428Z,1000.31
2018-01-20T08:01:21.387Z,1000.28
2018-01-20T08:02:21.364Z,1000.30
2018-01-20T08:03:21.336Z,1000.29
2018-01-20T08:04:21.307Z,1000.26
2018-01-20T08:05:21.293Z,1000.24
2018-01-20T08:06:21.273Z,1000.26
2018-01-20T08:07:21.213Z,1000.23
2018-01-20T08:08:21.186Z,1000.26
2018-01-20T08:09:21.157Z,1000.22
2018-01-20T08:10:21.141Z,1000.19
2018-01-20T08:11:21.111Z,1000.22
2018-01-20T08:12:21.058Z,1000.18
2018-01-20T08:13:21.056Z,1000.19
2018-01-20T08:14:21.010Z,1000.17
2018-01-20T08:15:20.980Z,1000.18
2018-01-20T08:16:20.955Z,1000.21
2018-01-20T08:17:20.945Z,1000.20
2018-01-20T08:18:20.884Z,1000.18
2018-01-20T08:19:20.884Z,1000.19
2018-01-20T08:20:20.842Z,1000.17
2018-01-20T08:21:20.815Z,1000.19
2018-01-20T08:22:20.838Z,1000.16
2018-01-20T08:23:20.742Z,1000.19
2018-01-20T08:24:20.734Z,1000.23
2018-01-20T08:25:20.704Z,1000.23
2018-01-20T08:26:20.740Z,1000.22
2018-01-20T08:27:20.685Z,1000.21
2018-01-20T08:28:20.604Z,1000.26
2018-01-20T08:29:20.567Z,1000.27
2018-01-20T08:30:20.548Z,1000.25
2018-01-20T08:31:20.535Z,1000.24
2018-01-20T08:32:20.481Z,1000.26
2018-01-20T08:33:20.445Z,1000.25
2018-01-20T08:34:20.414Z,1000.25
2018-01-20T08:35:20.395Z,1000.25
2018-01-20T08:36:20.478Z,1000.25
2018-01-20T08:37:20.338Z,1000.29
2018-01-20T08:38:20.314Z,1000.30
2018-01-20T08:39:20.285Z,1000.27
2018-01-20T08:40:20.267Z,1000.28
2018-01-20T08:41:20.223Z,1000.28
2018-01-20T08:42:20.186Z,1000.21
2018-01-20T08:43:20.159Z,1000.21
2018-01-20T08:44:20.150Z,1000.22
2018-01-20T08:45:20.094Z,1000.25
2018-01-20T08:46:20.076Z,1000.23
2018-01-20T08:47:20.037Z,1000.20
2018-01-20T08:48:20.015Z,1000.21
2018-01-20T08:49:19.975Z,1000.25
2018-01-20T08:50:19.980Z,1000.18
2018-01-20T08:51:19.920Z,1000.15
2018-01-20T08:52:19.892Z,1000.13
2018-01-20T08:53:19.866Z,1000.12
2018-01-20T08:54:19.835Z,1000.12
2018-01-20T08:55:19.825Z,1000.09
2018-01-20T08:56:19.767Z,1000.08
2018-01-20T08:57:19.748Z,1000.10
2018-01-20T08:58:19.723Z,1000.12
2018-01-20T08:59:19.690Z,1000.06
2018-01-20T09:00:19.656Z,1000.11
2018-01-20T09:01:19.625Z,1000.06
2018-01-20T09:02:19.871Z,1000.06
2018-01-20T09:03:19.567Z,1000.05
2018-01-20T09:04:19.535Z,1000.00
2018-01-20T09:05:19.505Z,1000.06
2018-01-20T09:06:19.473Z,1000.04
2018-01-20T09:07:19.467Z,1000.06
2018-01-20T09:08:19.419Z,1000.05
2018-01-20T09:09:19.395Z,1000.04
2018-01-20T09:10:19.363Z,1000.05
2018-01-20T09:11:19.333Z,1000.03
2018-01-20T09:12:19.310Z,1000.04
2018-01-20T09:13:19.288Z,1000.02
2018-01-20T09:14:19.241Z,999.98
2018-01-20T09:15:19.212Z,1000.03
2018-01-20T09:16:19.175Z,1000.00
2018-01-20T09:17:19.163Z,1000.02
2018-01-20T09:18:19.122Z,999.95
2018-01-20T09:19:19.103Z,999.99
2018-01-20T09:20:19.085Z,999.99
2018-01-20T09:21:19.031Z,1000.00
2018-01-20T09:22:19.011Z,999.95
2018-01-20T09:23:18.996Z,999.96
2018-01-20T09:24:18.963Z,999.94
2018-01-20T09:25:18.930Z,999.92
2018-01-20T09:26:18.899Z,999.91
2018-01-20T09:27:18.881Z,999.93
2018-01-20T09:28:18.836Z,999.90
2018-01-20T09:29:18.822Z,999.88
2018-01-20T09:30:18.782Z,999.86
2018-01-20T09:31:18.757Z,999.88
2018-01-20T09:32:18.723Z,999.84
2018-01-20T09:33:18.704Z,999.83
2018-01-20T09:34:18.652Z,999.81
2018-01-20T09:35:18.628Z,999.80
2018-01-20T09:36:18.613Z,999.83
2018-01-20T09:37:18.595Z,999.87
2018-01-20T09:38:18.621Z,999.84
2018-01-20T09:39:18.546Z,999.83
2018-01-20T09:40:18.495Z,999.85
2018-01-20T09:41:18.479Z,999.80
2018-01-20T09:42:18.429Z,999.78
2018-01-20T09:43:18.414Z,999.75
2018-01-20T09:44:18.375Z,999.76
2018-01-20T09:45:18.357Z,999.76
2018-01-20T09:46:18.321Z,999.77
2018-01-20T09:47:18.279Z,999.73
2018-01-20T09:48:18.265Z,999.74
2018-01-20T09:49:18.221Z,999.68
2018-01-20T09:50:18.199Z,999.69
2018-01-20T09:51:18.182Z,999.68
2018-01-20T09:52:18.153Z,999.66
2018-01-20T09:53:18.112Z,999.67
2018-01-20T09:54:18.077Z,999.65
2018-01-20T09:55:18.041Z,999.65
2018-01-20T09:56:18.011Z,999.62
2018-01-20T09:57:18.016Z,999.56
2018-01-20T09:58:17.961Z,999.55
2018-01-20T09:59:17.989Z,999.58
2018-01-20T10:00:17.930Z,999.55
2018-01-20T10:01:17.870Z,999.56
2018-01-20T10:02:17.846Z,999.46
2018-01-20T10:03:17.813Z,999.47
2018-01-20T10:04:17.795Z,999.49
2018-01-20T10:05:17.771Z,999.45
2018-01-20T10:06:17.724Z,999.42
2018-01-20T10:07:17.694Z,999.44
2018-01-20T10:08:17.673Z,999.40
2018-01-20T10:09:17.636Z,999.41
2018-01-20T10:10:17.609Z,999.39
2018-01-20T10:11:17.575Z,999.48
2018-01-20T10:12:17.556Z,999.42
2018-01-20T10:13:17.539Z,999.40
2018-01-20T10:14:17.533Z,999.40
2018-01-20T10:15:17.491Z,999.42
2018-01-20T10:16:17.448Z,999.32
2018-01-20T10:17:17.411Z,999.37
2018-01-20T10:18:17.376Z,999.39
2018-01-20T10:19:17.353Z,999.32
2018-01-20T10:20:17.311Z,999.32
2018-01-20T10:21:17.299Z,999.26
2018-01-20T10:22:17.268Z,999.27
2018-01-20T10:23:17.240Z,999.25
2018-01-20T10:24:17.214Z,999.24
2018-01-20T10:25:17.173Z,999.16
2018-01-20T10:26:17.143Z,999.20
2018-01-20T10:27:17.143Z,999.22
2018-01-20T10:28:17.090Z,999.22
2018-01-20T10:29:17.053Z,999.23
2018-01-20T10:30:17.038Z,999.24
2018-01-20T10:31:16.991Z,999.24
2018-01-20T10:32:16.973Z,999.18
2018-01-20T10:33:16.951Z,999.18
2018-01-20T10:34:16.933Z,999.18
2018-01-20T10:35:16.884Z,999.15
2018-01-20T10:36:16.867Z,999.12
2018-01-20T10:37:16.828Z,999.07
2018-01-20T10:38:16.801Z,999.04
2018-01-20T10:39:16.772Z,999.02
2018-01-20T10:40:16.745Z,999.00
2018-01-20T10:41:16.711Z,998.98
2018-01-20T10:42:16.689Z,998.98
2018-01-20T10:43:16.670Z,998.97
2018-01-20T10:44:16.635Z,998.96
2018-01-20T10:45:16.583Z,998.98
2018-01-20T10:46:16.568Z,998.96
2018-01-20T10:47:16.545Z,998.97
2018-01-20T10:48:16.566Z,998.97
2018-01-20T10:49:16.500Z,998.97
2018-01-20T10:50:16.465Z,998.98
2018-01-20T10:51:16.448Z,998.94
2018-01-20T10:52:16.402Z,998.94
2018-01-20T10:53:16.370Z,998.92
2018-01-20T10:54:16.339Z,998.86
2018-01-20T10:55:16.324Z,998.86
2018-01-20T10:56:16.277Z,998.85
2018-01-20T10:57:16.254Z,998.83
2018-01-20T10:58:16.234Z,998.80
2018-01-20T10:59:16.212Z,998.82
2018-01-20T11:00:16.186Z,998.79
2018-01-20T11:01:16.165Z,998.81
2018-01-20T11:02:16.118Z,998.76
2018-01-20T11:03:16.089Z,998.75
2018-01-20T11:04:16.068Z,998.78
2018-01-20T11:05:16.045Z,998.77
2018-01-20T11:06:16.025Z,998.73
2018-01-20T11:07:15.981Z,998.74
2018-01-20T11:08:15.950Z,998.73
2018-01-20T11:09:15.930Z,998.66
2018-01-20T11:10:15.913Z,998.61
2018-01-20T11:11:15.866Z,998.62
2018-01-20T11:12:15.826Z,998.62
2018-01-20T11:13:15.812Z,998.59
2018-01-20T11:14:15.784Z,998.59
2018-01-20T11:15:15.749Z,998.60
2018-01-20T11:16:15.726Z,998.56
2018-01-20T11:17:15.699Z,998.53
2018-01-20T11:18:15.669Z,998.53
2018-01-20T11:19:15.640Z,998.49
2018-01-20T11:20:15.634Z,998.51
2018-01-20T11:21:15.603Z,998.48
2018-01-20T11:22:15.551Z,998.46
2018-01-20T11:23:15.531Z,998.45
2018-01-20T11:24:15.507Z,998.40
2018-01-20T11:25:15.484Z,998.34
2018-01-20T11:26:15.459Z,998.31
2018-01-20T11:27:15.434Z,998.31
2018-01-20T11:28:15.393Z,998.26
2018-01-20T11:29:15.367Z,998.24
2018-01-20T11:30:15.395Z,998.23
2018-01-20T11:31:15.309Z,998.19
2018-01-20T11:32:15.278Z,998.21
2018-01-20T11:33:15.245Z,998.18
2018-01-20T11:34:15.227Z,998.18
2018-01-20T11:35:15.190Z,998.11
2018-01-20T11:36:15.161Z,998.15
2018-01-20T11:37:15.135Z,998.12
2018-01-20T11:38:15.122Z,998.09
2018-01-20T11:39:15.098Z,998.12
2018-01-20T11:40:15.066Z,998.10
2018-01-20T11:41:15.036Z,998.09
2018-01-20T11:42:15.001Z,998.04
2018-01-20T11:43:14.970Z,998.07
2018-01-20T11:44:14.942Z,998.02
2018-01-20T11:45:14.914Z,998.02
2018-01-20T11:46:14.891Z,997.96
2018-01-20T11:47:14.883Z,997.92
2018-01-20T11:48:14.841Z,997.87
2018-01-20T11:49:14.822Z,997.85
2018-01-20T11:50:14.775Z,997.85
2018-01-20T11:51:14.753Z,997.81
2018-01-20T11:52:14.718Z,997.82
2018-01-20T11:53:14.728Z,997.79
2018-01-20T11:54:14.661Z,997.76
2018-01-20T11:55:14.638Z,997.72
2018-01-20T11:56:14.658Z,997.69
2018-01-20T11:57:14.582Z,997.68
2018-01-20T11:58:14.565Z,997.67
2018-01-20T11:59:14.553Z,997.62
2018-01-20T12:00:14.507Z,997.58
2018-01-20T12:01:14.464Z,997.58
2018-01-20T12:02:14.435Z,997.55
2018-01-20T12:03:14.417Z,997.50
2018-01-20T12:04:14.383Z,997.47
2018-01-20T12:05:14.384Z,997.50
2018-01-20T12:06:14.329Z,997.47
2018-01-20T12:07:14.441Z,997.41
2018-01-20T12:08:14.266Z,997.43
2018-01-20T12:09:14.231Z,997.33
2018-01-20T12:10:14.220Z,997.32
2018-01-20T12:11:14.189Z,997.31